SJU weather

Luis Munoz Marin International Airport
San Juan, Puerto Rico

Public forecast

Using degrees Celsius for public forecast. Weather courtesy of forecast.io.

Current aviation weather report (METAR) for Luis Munoz Marin International Airport

Retrieved 2019/10/16 20:56 UTC (24 minutes ago):

TJSJ 162056Z 07011KT 10SM SCT038 SCT070 29/24 A2993

Aviation forecast (TAF) for Luis Munoz Marin International Airport

Retrieved 2019/10/16 18:33 UTC (3 hours ago):

TAF TJSJ 161728Z 1618/1718 05011KT P6SM FEW030 FEW070 FM162200 VRB03KT P6SM SCT030 SCT060 FM171400 06010KT P6SM FEW035 SCT050